Terminal Aerodrome Forecast
Issued by NWS Northern Indiana

Home | Current Version | Previous Version | Graphics & Text | Print | Product List | Glossary On
Versions: 1 2 3 4 5 6 7 8 9 10 11 12 13 14 15
000
FTUS43 KIWX 301100
TAFFWA
TAF
KFWA 301120Z 3012/3112 23004KT 5SM BR SCT080
     FM301300 26008KT P6SM SCT040 BKN100
     FM301600 29010KT P6SM VCTS BKN045CB
     FM302300 28003KT P6SM SCT050=

USA.gov is the U.S. government's official web portal to all federal, state and local government web resources and services.